Time;durP1;ratioP1;P1;durP2;ratioP2;P2;SDS_P1;SDS_P2;PMS_P1;PMS_P2;Temp;Humidity;BMP_temperature;BMP_pressure;BME280_temperature;BME280_humidity;BME280_pressure;Samples;Min_cycle;Max_cycle;Signal;HPM_P1;HPM_P2
2022/12/24 00:01:05;;;;;;;;;;;8.90;99.90;;;;;;5077364;28;19968;-78
2022/12/24 00:03:31;;;;;;;;;;;8.90;99.90;;;;;;5059498;28;19924;-78
2022/12/24 00:05:57;;;;;;;;;;;8.90;99.90;;;;;;5070393;28;19946;-77
2022/12/24 00:08:22;;;;;;;;;;;8.80;99.90;;;;;;5076849;28;20284;-78
2022/12/24 00:10:51;;;;;;;;;;;8.80;99.90;;;;;;5074923;28;20015;-77
2022/12/24 00:13:17;;;;;;;;;;;8.80;99.90;;;;;;5072638;28;19925;-78
2022/12/24 00:15:42;;;;;;;;;;;8.80;99.90;;;;;;5075041;28;19931;-78
2022/12/24 00:18:08;;;;;;;;;;;8.80;99.90;;;;;;5075315;28;19925;-76
2022/12/24 00:20:34;;;;;;;;;;;8.70;99.90;;;;;;5080532;28;19932;-77
2022/12/24 00:22:59;;;;;;;;;;;8.70;99.90;;;;;;5078811;28;19924;-77
2022/12/24 00:25:25;;;;;;;;;;;8.70;99.90;;;;;;5076943;28;19932;-78
2022/12/24 00:27:50;;;;;;;;;;;8.70;99.90;;;;;;5075818;28;19970;-77
2022/12/24 00:30:16;;;;;;;;;;;8.70;99.90;;;;;;5076673;28;19928;-78
2022/12/24 00:32:41;;;;;;;;;;;8.70;99.90;;;;;;5076717;28;19928;-78
2022/12/24 00:35:07;;;;;;;;;;;8.70;99.90;;;;;;5043392;28;19968;-78
2022/12/24 00:37:33;;;;;;;;;;;8.70;99.90;;;;;;5058488;28;20066;-78
2022/12/24 00:39:58;;;;;;;;;;;8.70;99.90;;;;;;5076860;28;20382;-79
2022/12/24 00:42:24;;;;;;;;;;;8.70;99.90;;;;;;5071127;28;19924;-78
2022/12/24 00:44:49;;;;;;;;;;;8.70;99.90;;;;;;5056032;28;20264;-78
2022/12/24 00:47:15;;;;;;;;;;;8.70;99.90;;;;;;5053027;28;19986;-78
2022/12/24 00:49:40;;;;;;;;;;;8.70;99.90;;;;;;5074693;28;19925;-78
2022/12/24 00:52:06;;;;;;;;;;;8.80;99.90;;;;;;5068777;28;20028;-78
2022/12/24 00:54:31;;;;;;;;;;;8.80;99.90;;;;;;5076621;28;19935;-78
2022/12/24 00:56:57;;;;;;;;;;;8.80;99.90;;;;;;5072455;28;19933;-78
2022/12/24 00:59:23;;;;;;;;;;;8.80;99.90;;;;;;5078355;28;19924;-77
2022/12/24 01:01:48;;;;;;;;;;;8.80;99.90;;;;;;5041913;28;20290;-77
2022/12/24 01:06:58;;;;;;;;;;;8.80;99.90;;;;;;5068950;28;19931;-78
2022/12/24 01:09:23;;;;;;;;;;;8.90;99.90;;;;;;5075186;28;19960;-78
2022/12/24 01:11:49;;;;;;;;;;;8.90;99.90;;;;;;5077252;28;20382;-78
2022/12/24 01:14:15;;;;;;;;;;;8.90;99.90;;;;;;5071146;28;19975;-79
2022/12/24 01:16:40;;;;;;;;;;;8.90;99.90;;;;;;5074666;28;19924;-79
2022/12/24 01:19:06;;;;;;;;;;;8.80;99.90;;;;;;5039632;28;20275;-78
2022/12/24 01:21:31;;;;;;;;;;;8.90;99.90;;;;;;5071050;28;19964;-78
2022/12/24 01:23:57;;;;;;;;;;;8.90;99.90;;;;;;5060538;28;19951;-78
2022/12/24 01:26:22;;;;;;;;;;;8.90;99.90;;;;;;5074516;28;20011;-79
2022/12/24 01:28:48;;;;;;;;;;;8.90;99.90;;;;;;5068964;28;19925;-78
2022/12/24 01:31:15;;;;;;;;;;;8.90;99.90;;;;;;5070418;28;19924;-79
2022/12/24 01:33:41;;;;;;;;;;;8.90;99.90;;;;;;5076604;28;19929;-79
2022/12/24 01:36:07;;;;;;;;;;;8.90;99.90;;;;;;5071889;28;19982;-79
2022/12/24 01:38:32;;;;;;;;;;;9.00;99.90;;;;;;5072849;28;19928;-79
2022/12/24 01:43:42;;;;;;;;;;;9.00;99.90;;;;;;5070168;28;20334;-78
2022/12/24 01:46:15;;;;;;;;;;;9.00;99.90;;;;;;5077427;28;19935;-78
2022/12/24 01:48:42;;;;;;;;;;;9.00;99.90;;;;;;5054902;28;20330;-78
2022/12/24 01:51:11;;;;;;;;;;;9.00;99.90;;;;;;5075449;28;20649;-78
2022/12/24 01:53:38;;;;;;;;;;;9.00;99.90;;;;;;5072825;28;19955;-78
2022/12/24 01:56:03;;;;;;;;;;;9.00;99.90;;;;;;5078363;28;19924;-78
2022/12/24 01:58:30;;;;;;;;;;;9.00;99.90;;;;;;5071501;28;19931;-77
2022/12/24 02:00:55;;;;;;;;;;;8.90;99.90;;;;;;5073490;28;19955;-77
2022/12/24 02:03:21;;;;;;;;;;;8.90;99.90;;;;;;5076288;28;19925;-78
2022/12/24 02:05:48;;;;;;;;;;;8.90;99.90;;;;;;5069991;28;19928;-78
2022/12/24 02:08:14;;;;;;;;;;;8.90;99.90;;;;;;5075302;28;19947;-78
2022/12/24 02:10:40;;;;;;;;;;;8.90;99.90;;;;;;5072576;28;19930;-78
2022/12/24 02:13:06;;;;;;;;;;;8.80;99.90;;;;;;5070957;28;19928;-78
2022/12/24 02:15:38;;;;;;;;;;;8.80;99.90;;;;;;5074938;28;20012;-78
2022/12/24 02:18:12;;;;;;;;;;;8.80;99.90;;;;;;5072098;28;19928;-79
2022/12/24 02:20:53;;;;;;;;;;;8.80;99.90;;;;;;5073694;28;19932;-79
2022/12/24 02:23:37;;;;;;;;;;;8.80;99.90;;;;;;5050510;28;19932;-79
2022/12/24 02:26:13;;;;;;;;;;;8.80;99.90;;;;;;5077395;28;20010;-78
2022/12/24 02:29:09;;;;;;;;;;;8.80;99.90;;;;;;5079976;28;19928;-78
2022/12/24 02:31:41;;;;;;;;;;;8.80;99.90;;;;;;5057825;28;19982;-79
2022/12/24 02:34:15;;;;;;;;;;;8.80;99.90;;;;;;5075921;28;19925;-79
2022/12/24 02:36:48;;;;;;;;;;;8.80;99.90;;;;;;5077363;28;19931;-79
2022/12/24 02:39:19;;;;;;;;;;;8.80;99.90;;;;;;5078806;28;20338;-78
2022/12/24 02:42:07;;;;;;;;;;;8.90;99.90;;;;;;5074119;28;19929;-78
2022/12/24 02:44:43;;;;;;;;;;;8.90;99.90;;;;;;5073148;28;19924;-78
2022/12/24 02:47:10;;;;;;;;;;;8.90;99.90;;;;;;5058294;28;19932;-79
2022/12/24 02:49:36;;;;;;;;;;;8.90;99.90;;;;;;5071221;28;20062;-79
2022/12/24 02:52:02;;;;;;;;;;;8.90;99.90;;;;;;5073875;28;19924;-78
2022/12/24 02:54:28;;;;;;;;;;;8.90;99.90;;;;;;5060175;28;20240;-79
2022/12/24 02:56:56;;;;;;;;;;;8.90;99.90;;;;;;5074624;28;19976;-79
2022/12/24 02:59:54;;;;;;;;;;;8.90;99.90;;;;;;5078452;28;19971;-79
2022/12/24 03:02:38;;;;;;;;;;;8.90;99.90;;;;;;5027365;28;20302;-79
2022/12/24 03:05:23;;;;;;;;;;;8.90;99.90;;;;;;5070245;28;19928;-79
2022/12/24 03:07:48;;;;;;;;;;;9.00;99.90;;;;;;5069187;28;20390;-79
2022/12/24 03:10:30;;;;;;;;;;;9.00;99.90;;;;;;5072095;28;19939;-79
2022/12/24 03:12:59;;;;;;;;;;;8.90;99.90;;;;;;5064514;28;20022;-79
2022/12/24 03:15:25;;;;;;;;;;;8.90;99.90;;;;;;5064570;28;20451;-79
2022/12/24 03:17:52;;;;;;;;;;;8.90;99.90;;;;;;5073645;28;19968;-79
2022/12/24 03:20:19;;;;;;;;;;;8.90;99.90;;;;;;5075338;28;19925;-79
2022/12/24 03:22:45;;;;;;;;;;;8.90;99.90;;;;;;5073968;28;19924;-79
2022/12/24 03:25:11;;;;;;;;;;;8.90;99.90;;;;;;5059155;28;19999;-79
2022/12/24 03:27:37;;;;;;;;;;;8.90;99.90;;;;;;5073601;28;19929;-79
2022/12/24 03:30:04;;;;;;;;;;;8.90;99.90;;;;;;5057962;28;19924;-79
2022/12/24 03:32:31;;;;;;;;;;;8.90;99.90;;;;;;5077153;28;19925;-79
2022/12/24 03:34:56;;;;;;;;;;;8.90;99.90;;;;;;5075198;28;19929;-79
2022/12/24 03:37:22;;;;;;;;;;;8.90;99.90;;;;;;5077475;28;20319;-79
2022/12/24 03:39:48;;;;;;;;;;;8.90;99.90;;;;;;5076642;28;19985;-79
2022/12/24 03:42:13;;;;;;;;;;;8.90;99.90;;;;;;5059901;28;19950;-79
2022/12/24 03:44:39;;;;;;;;;;;8.90;99.90;;;;;;5049140;28;19976;-79
2022/12/24 03:47:05;;;;;;;;;;;8.90;99.90;;;;;;5074415;28;19929;-79
2022/12/24 03:49:30;;;;;;;;;;;8.90;99.90;;;;;;5069743;28;19959;-79
2022/12/24 03:51:56;;;;;;;;;;;8.90;99.90;;;;;;5074500;28;19924;-79
2022/12/24 03:54:21;;;;;;;;;;;8.90;99.90;;;;;;5076978;28;19924;-79
2022/12/24 03:56:47;;;;;;;;;;;8.90;99.90;;;;;;5071893;28;19970;-79
2022/12/24 03:59:12;;;;;;;;;;;8.90;99.90;;;;;;5078787;28;19954;-79
2022/12/24 04:01:38;;;;;;;;;;;8.90;99.90;;;;;;5070620;28;19925;-79
2022/12/24 04:04:03;;;;;;;;;;;8.90;99.90;;;;;;5075177;28;20046;-79
2022/12/24 04:06:29;;;;;;;;;;;8.80;99.90;;;;;;5075144;28;20324;-79
2022/12/24 04:08:55;;;;;;;;;;;8.90;99.90;;;;;;5076411;28;20438;-79
2022/12/24 04:11:20;;;;;;;;;;;8.90;99.90;;;;;;5054424;28;20910;-79
2022/12/24 04:13:46;;;;;;;;;;;8.90;99.90;;;;;;5074833;28;19943;-79
2022/12/24 04:16:12;;;;;;;;;;;8.90;99.90;;;;;;5077243;28;19925;-79
2022/12/24 04:18:38;;;;;;;;;;;8.80;99.90;;;;;;5070654;28;19975;-79
2022/12/24 04:21:04;;;;;;;;;;;8.80;99.90;;;;;;5076069;28;19924;-79
2022/12/24 04:23:30;;;;;;;;;;;8.80;99.90;;;;;;5075725;28;19929;-79
2022/12/24 04:26:03;;;;;;;;;;;8.90;99.90;;;;;;5076648;28;19928;-79
2022/12/24 04:28:29;;;;;;;;;;;8.90;99.90;;;;;;5077082;28;19924;-79
2022/12/24 04:30:59;;;;;;;;;;;8.80;99.90;;;;;;5076569;28;19970;-79
2022/12/24 04:33:25;;;;;;;;;;;8.90;99.90;;;;;;5075660;28;19924;-79
2022/12/24 04:35:50;;;;;;;;;;;8.80;99.90;;;;;;5074715;28;20939;-79
2022/12/24 04:38:16;;;;;;;;;;;8.80;99.90;;;;;;5078502;28;19964;-79
2022/12/24 04:40:41;;;;;;;;;;;8.80;99.90;;;;;;5075591;28;19924;-79
2022/12/24 04:43:07;;;;;;;;;;;8.80;99.90;;;;;;5077205;28;19934;-79
2022/12/24 04:45:32;;;;;;;;;;;8.80;99.90;;;;;;5072661;28;19925;-78
2022/12/24 04:47:58;;;;;;;;;;;8.80;99.90;;;;;;5060169;28;19928;-79
2022/12/24 04:50:24;;;;;;;;;;;8.90;99.90;;;;;;5076856;28;19967;-79
2022/12/24 04:52:49;;;;;;;;;;;8.90;99.90;;;;;;5055430;28;19925;-79
2022/12/24 04:55:15;;;;;;;;;;;8.90;99.90;;;;;;5075314;28;19951;-79
2022/12/24 04:57:40;;;;;;;;;;;8.90;99.90;;;;;;5067700;28;19924;-78
2022/12/24 05:00:06;;;;;;;;;;;8.90;99.90;;;;;;5074923;28;20019;-78
2022/12/24 05:02:32;;;;;;;;;;;8.90;99.90;;;;;;5076564;28;19925;-78
2022/12/24 05:04:58;;;;;;;;;;;8.90;99.90;;;;;;5067825;28;19929;-78
2022/12/24 05:07:23;;;;;;;;;;;8.90;99.90;;;;;;5058173;28;20441;-78
2022/12/24 05:09:49;;;;;;;;;;;8.90;99.90;;;;;;5075076;28;19999;-78
2022/12/24 05:12:14;;;;;;;;;;;8.90;99.90;;;;;;5073345;28;20344;-78
2022/12/24 05:14:40;;;;;;;;;;;8.90;99.90;;;;;;5075111;28;19924;-78
2022/12/24 05:17:06;;;;;;;;;;;8.80;99.90;;;;;;5072475;28;19956;-78
2022/12/24 05:19:31;;;;;;;;;;;8.80;99.90;;;;;;5071820;28;20498;-79
2022/12/24 05:27:25;;;;;;;;;;;8.90;99.90;;;;;;5071004;28;19924;-78
2022/12/24 05:29:50;;;;;;;;;;;8.90;99.90;;;;;;5074751;28;20494;-78
2022/12/24 05:32:16;;;;;;;;;;;8.90;99.90;;;;;;5073669;28;19964;-78
2022/12/24 05:34:42;;;;;;;;;;;8.90;99.90;;;;;;5068060;28;19933;-79
2022/12/24 05:37:07;;;;;;;;;;;8.90;99.90;;;;;;5067482;28;19988;-78
2022/12/24 05:39:33;;;;;;;;;;;8.80;99.90;;;;;;5064207;28;19931;-78
2022/12/24 05:41:58;;;;;;;;;;;8.80;99.90;;;;;;5072252;28;19924;-78
2022/12/24 05:44:24;;;;;;;;;;;8.80;99.90;;;;;;5075973;28;19925;-78
2022/12/24 05:46:50;;;;;;;;;;;8.80;99.90;;;;;;5074440;28;19970;-79
2022/12/24 05:49:15;;;;;;;;;;;8.80;99.90;;;;;;5068963;28;20406;-78
2022/12/24 05:51:41;;;;;;;;;;;8.80;99.90;;;;;;5072246;28;19947;-78
2022/12/24 05:54:07;;;;;;;;;;;8.80;99.90;;;;;;5070032;28;19932;-78
2022/12/24 05:56:32;;;;;;;;;;;8.70;99.90;;;;;;5077735;28;19997;-78
2022/12/24 05:58:58;;;;;;;;;;;8.70;99.90;;;;;;5071145;28;19939;-78
2022/12/24 06:01:24;;;;;;;;;;;8.70;99.90;;;;;;5074042;28;19934;-78
2022/12/24 06:03:50;;;;;;;;;;;8.70;99.90;;;;;;5072559;28;19950;-78
2022/12/24 06:06:20;;;;;;;;;;;8.70;99.90;;;;;;5075065;28;19928;-78
2022/12/24 06:08:46;;;;;;;;;;;8.70;99.90;;;;;;5074846;28;19935;-78
2022/12/24 06:11:13;;;;;;;;;;;8.70;99.90;;;;;;5071097;28;19932;-78
2022/12/24 06:13:39;;;;;;;;;;;8.70;99.90;;;;;;5079212;28;19929;-78
2022/12/24 06:16:05;;;;;;;;;;;8.70;99.90;;;;;;5079033;28;19932;-78
2022/12/24 06:18:32;;;;;;;;;;;8.70;99.90;;;;;;5073390;28;19936;-78
2022/12/24 06:20:57;;;;;;;;;;;8.70;99.90;;;;;;5060128;28;19928;-78
2022/12/24 06:23:23;;;;;;;;;;;8.60;99.90;;;;;;5071580;28;19925;-78
2022/12/24 06:25:50;;;;;;;;;;;8.60;99.90;;;;;;5079792;28;19924;-78
2022/12/24 06:28:16;;;;;;;;;;;8.60;99.90;;;;;;5079401;28;20488;-78
2022/12/24 06:30:45;;;;;;;;;;;8.60;99.90;;;;;;5079500;28;19925;-78
2022/12/24 06:33:11;;;;;;;;;;;8.60;99.90;;;;;;5079291;28;19974;-78
2022/12/24 06:35:37;;;;;;;;;;;8.60;99.90;;;;;;5078300;28;19928;-78
2022/12/24 06:38:02;;;;;;;;;;;8.50;99.90;;;;;;5080845;28;20403;-78
2022/12/24 06:40:28;;;;;;;;;;;8.50;99.90;;;;;;5078488;28;19991;-78
2022/12/24 06:42:53;;;;;;;;;;;8.50;99.90;;;;;;5080083;28;19928;-78
2022/12/24 06:45:19;;;;;;;;;;;8.50;99.90;;;;;;5079557;28;19940;-77
2022/12/24 06:47:44;;;;;;;;;;;8.50;99.90;;;;;;5074044;28;20001;-77
2022/12/24 06:50:10;;;;;;;;;;;8.40;99.90;;;;;;5071468;28;20419;-77
2022/12/24 06:52:35;;;;;;;;;;;8.40;99.90;;;;;;5074170;28;19983;-82
2022/12/24 06:55:01;;;;;;;;;;;8.30;99.90;;;;;;5061385;28;19925;-82
2022/12/24 06:57:27;;;;;;;;;;;8.30;99.90;;;;;;5070301;28;19932;-82
2022/12/24 06:59:53;;;;;;;;;;;8.30;99.90;;;;;;5059582;28;19928;-82
2022/12/24 07:02:18;;;;;;;;;;;8.30;99.90;;;;;;5070597;28;19925;-81
2022/12/24 07:04:44;;;;;;;;;;;8.30;99.90;;;;;;5070149;28;20297;-82
2022/12/24 07:07:09;;;;;;;;;;;8.20;99.90;;;;;;5067724;28;20007;-82
2022/12/24 07:09:35;;;;;;;;;;;8.20;99.90;;;;;;5074154;28;20430;-82
2022/12/24 07:12:00;;;;;;;;;;;8.20;99.90;;;;;;5072377;28;19928;-81
2022/12/24 07:14:26;;;;;;;;;;;8.10;99.90;;;;;;5066613;28;19943;-82
2022/12/24 07:16:52;;;;;;;;;;;8.10;99.90;;;;;;5044607;28;19928;-83
2022/12/24 07:19:17;;;;;;;;;;;8.10;99.90;;;;;;5072016;28;19925;-82
2022/12/24 07:21:43;;;;;;;;;;;8.10;99.90;;;;;;5037863;28;19925;-82
2022/12/24 07:24:09;;;;;;;;;;;8.10;99.90;;;;;;5057045;28;20379;-82
2022/12/24 07:26:34;;;;;;;;;;;8.10;99.90;;;;;;5072793;28;19988;-82
2022/12/24 07:29:00;;;;;;;;;;;8.10;99.90;;;;;;5076136;28;19932;-82
2022/12/24 07:31:26;;;;;;;;;;;8.20;99.90;;;;;;5052934;28;19928;-82
2022/12/24 07:33:51;;;;;;;;;;;8.20;99.90;;;;;;5078365;28;19936;-83
2022/12/24 07:36:18;;;;;;;;;;;8.30;99.90;;;;;;5066595;28;19924;-83
2022/12/24 07:38:44;;;;;;;;;;;8.30;99.90;;;;;;5078078;28;20023;-82
2022/12/24 07:41:09;;;;;;;;;;;8.30;99.90;;;;;;5072274;28;19950;-82
2022/12/24 07:43:35;;;;;;;;;;;8.30;99.90;;;;;;5078719;28;19946;-82
2022/12/24 07:46:01;;;;;;;;;;;8.30;99.90;;;;;;5076144;28;20253;-82
2022/12/24 07:48:27;;;;;;;;;;;8.40;99.90;;;;;;5067698;28;19988;-82
2022/12/24 07:50:52;;;;;;;;;;;8.40;99.90;;;;;;5070889;28;19928;-82
2022/12/24 07:53:18;;;;;;;;;;;8.40;99.90;;;;;;5051880;28;19925;-82
2022/12/24 07:55:44;;;;;;;;;;;8.50;99.90;;;;;;5070460;28;19976;-83
2022/12/24 07:58:09;;;;;;;;;;;8.50;99.90;;;;;;5070183;28;19996;-82
2022/12/24 08:00:35;;;;;;;;;;;8.50;99.90;;;;;;5069678;28;20360;-83
2022/12/24 08:03:01;;;;;;;;;;;8.50;99.90;;;;;;5072668;28;19971;-83
2022/12/24 08:05:26;;;;;;;;;;;8.60;99.90;;;;;;5052871;28;19936;-83
2022/12/24 08:07:52;;;;;;;;;;;8.50;99.90;;;;;;5066397;28;19925;-83
2022/12/24 08:10:18;;;;;;;;;;;8.60;99.90;;;;;;5050015;28;19990;-82
2022/12/24 08:12:44;;;;;;;;;;;8.60;99.90;;;;;;5069477;28;20286;-82
2022/12/24 08:15:10;;;;;;;;;;;8.60;99.90;;;;;;5068094;28;19963;-83
2022/12/24 08:17:36;;;;;;;;;;;8.60;99.90;;;;;;5064306;28;19940;-82
2022/12/24 08:20:02;;;;;;;;;;;8.70;99.90;;;;;;5065655;28;19977;-82
2022/12/24 08:22:28;;;;;;;;;;;8.70;99.90;;;;;;5050360;28;20379;-82
2022/12/24 08:24:53;;;;;;;;;;;8.70;99.90;;;;;;5069933;28;19940;-82
2022/12/24 08:27:19;;;;;;;;;;;8.70;99.90;;;;;;5038924;28;20467;-82
2022/12/24 08:29:44;;;;;;;;;;;8.70;99.90;;;;;;5068603;28;19933;-84
2022/12/24 08:32:10;;;;;;;;;;;8.70;99.90;;;;;;5053202;28;20445;-83
2022/12/24 08:34:36;;;;;;;;;;;8.70;99.90;;;;;;5066380;28;19933;-84
2022/12/24 08:37:01;;;;;;;;;;;8.80;99.90;;;;;;5050335;28;19933;-84
2022/12/24 08:39:27;;;;;;;;;;;8.80;99.90;;;;;;5066850;28;19925;-84
2022/12/24 08:41:52;;;;;;;;;;;8.80;99.90;;;;;;5067713;28;19935;-84
2022/12/24 08:44:18;;;;;;;;;;;8.80;99.90;;;;;;5048403;28;19925;-84
2022/12/24 08:46:43;;;;;;;;;;;8.90;99.90;;;;;;5066713;28;19929;-84
2022/12/24 08:49:09;;;;;;;;;;;8.90;99.90;;;;;;5068622;28;19935;-84
2022/12/24 08:51:34;;;;;;;;;;;9.00;99.90;;;;;;5067748;28;19933;-84
2022/12/24 08:54:00;;;;;;;;;;;9.00;99.90;;;;;;5069857;28;19936;-84
2022/12/24 08:56:26;;;;;;;;;;;9.00;99.90;;;;;;5065072;28;19932;-84
2022/12/24 08:58:51;;;;;;;;;;;9.00;99.90;;;;;;5054753;28;20392;-84
2022/12/24 09:01:20;;;;;;;;;;;9.10;99.90;;;;;;5068886;28;20307;-84
2022/12/24 09:03:46;;;;;;;;;;;9.00;99.90;;;;;;5068769;28;19954;-81
2022/12/24 09:06:12;;;;;;;;;;;9.10;99.90;;;;;;5062268;28;20439;-83
2022/12/24 09:08:37;;;;;;;;;;;9.20;99.90;;;;;;5070079;28;19925;-83
2022/12/24 09:11:04;;;;;;;;;;;9.20;99.90;;;;;;5068143;28;19928;-81
2022/12/24 09:13:29;;;;;;;;;;;9.30;99.90;;;;;;5070098;28;19939;-82
2022/12/24 09:15:55;;;;;;;;;;;9.30;99.90;;;;;;5053395;28;21368;-82
2022/12/24 09:18:21;;;;;;;;;;;9.30;99.90;;;;;;5062734;28;19924;-83
2022/12/24 09:20:46;;;;;;;;;;;9.30;99.90;;;;;;5064893;28;20433;-84
2022/12/24 09:23:12;;;;;;;;;;;9.30;99.90;;;;;;5059936;28;19964;-84
2022/12/24 09:25:41;;;;;;;;;;;9.40;99.90;;;;;;5067638;28;19944;-82
2022/12/24 09:28:06;;;;;;;;;;;9.40;99.90;;;;;;5051933;28;19928;-83
2022/12/24 09:30:32;;;;;;;;;;;9.40;99.90;;;;;;5062481;28;19955;-82
2022/12/24 09:32:57;;;;;;;;;;;9.40;99.90;;;;;;5061588;28;19928;-82
2022/12/24 09:35:23;;;;;;;;;;;9.50;99.90;;;;;;5053790;28;19925;-83
2022/12/24 09:38:01;;;;;;;;;;;9.50;99.90;;;;;;5069232;28;19932;-83
2022/12/24 09:40:45;;;;;;;;;;;9.60;99.90;;;;;;5063725;28;20033;-83
2022/12/24 09:43:14;;;;;;;;;;;9.70;99.90;;;;;;5062574;28;19924;-82
2022/12/24 09:45:42;;;;;;;;;;;9.70;99.90;;;;;;5069702;28;19963;-82
2022/12/24 09:48:12;;;;;;;;;;;9.70;99.90;;;;;;5061629;28;19925;-82
2022/12/24 09:50:46;;;;;;;;;;;9.60;99.90;;;;;;5070992;28;19929;-81
2022/12/24 09:53:21;;;;;;;;;;;9.60;99.90;;;;;;5064909;28;19933;-81
2022/12/24 09:55:53;;;;;;;;;;;9.50;99.90;;;;;;5067204;28;19955;-81
2022/12/24 09:58:29;;;;;;;;;;;9.50;99.90;;;;;;5059494;28;20404;-81
2022/12/24 10:00:55;;;;;;;;;;;9.50;99.90;;;;;;5058462;28;19924;-81
2022/12/24 10:03:20;;;;;;;;;;;9.40;99.90;;;;;;5066747;28;19947;-81
2022/12/24 10:05:52;;;;;;;;;;;9.40;99.90;;;;;;5062734;28;19990;-81
2022/12/24 10:08:24;;;;;;;;;;;9.50;99.90;;;;;;5064684;28;20445;-81
2022/12/24 10:10:54;;;;;;;;;;;9.60;99.90;;;;;;5066611;28;20406;-81
2022/12/24 10:13:25;;;;;;;;;;;9.80;99.90;;;;;;5063728;28;20434;-81
2022/12/24 10:16:09;;;;;;;;;;;9.70;99.90;;;;;;5062813;28;19972;-81
2022/12/24 10:18:44;;;;;;;;;;;9.80;99.90;;;;;;5062711;28;19925;-82
2022/12/24 10:21:16;;;;;;;;;;;9.90;99.90;;;;;;5046760;28;19935;-82
2022/12/24 10:23:44;;;;;;;;;;;9.90;99.90;;;;;;5064269;28;19933;-82
2022/12/24 10:26:17;;;;;;;;;;;9.90;99.90;;;;;;5063411;28;20004;-82
2022/12/24 10:28:53;;;;;;;;;;;9.80;99.90;;;;;;5063989;28;19932;-82
2022/12/24 10:31:24;;;;;;;;;;;9.80;99.90;;;;;;5049306;28;20465;-82
2022/12/24 10:33:55;;;;;;;;;;;9.80;99.90;;;;;;5066720;28;20341;-82
2022/12/24 10:36:23;;;;;;;;;;;9.80;99.90;;;;;;5066402;28;19963;-82
2022/12/24 10:38:49;;;;;;;;;;;9.80;99.90;;;;;;5066985;28;19931;-83
2022/12/24 10:41:15;;;;;;;;;;;9.80;99.90;;;;;;5047602;28;19928;-82
2022/12/24 10:43:42;;;;;;;;;;;9.80;99.90;;;;;;5070324;28;19932;-82
2022/12/24 10:46:21;;;;;;;;;;;9.80;99.90;;;;;;5071430;28;19999;-82
2022/12/24 10:48:58;;;;;;;;;;;9.80;99.90;;;;;;5068607;28;19970;-82
2022/12/24 10:51:39;;;;;;;;;;;9.80;99.90;;;;;;5074116;28;19925;-83
2022/12/24 10:54:06;;;;;;;;;;;9.80;99.90;;;;;;5072608;28;19924;-83
2022/12/24 10:56:38;;;;;;;;;;;9.80;99.90;;;;;;5072792;28;20430;-83
2022/12/24 10:59:04;;;;;;;;;;;9.80;99.90;;;;;;5057699;28;19955;-83
2022/12/24 11:01:46;;;;;;;;;;;9.80;99.90;;;;;;5073930;28;19925;-83
2022/12/24 11:04:16;;;;;;;;;;;9.80;99.90;;;;;;5066329;28;21175;-83
2022/12/24 11:07:05;;;;;;;;;;;9.80;99.90;;;;;;5052928;28;19955;-83
2022/12/24 11:09:32;;;;;;;;;;;9.80;99.90;;;;;;5061018;28;19924;-83
2022/12/24 11:11:59;;;;;;;;;;;9.80;99.90;;;;;;5053282;28;19928;-83
2022/12/24 11:14:27;;;;;;;;;;;9.70;99.90;;;;;;5053181;28;19928;-83
2022/12/24 11:16:53;;;;;;;;;;;9.70;99.90;;;;;;5072487;28;19928;-83
2022/12/24 11:19:24;;;;;;;;;;;9.70;99.90;;;;;;5053975;28;19925;-83
2022/12/24 11:21:56;;;;;;;;;;;9.70;99.90;;;;;;5070863;28;19971;-84
2022/12/24 11:24:26;;;;;;;;;;;9.70;99.90;;;;;;5048252;28;19936;-82
2022/12/24 11:26:52;;;;;;;;;;;9.70;99.90;;;;;;5069008;28;20461;-83
2022/12/24 11:29:25;;;;;;;;;;;9.60;99.90;;;;;;5051484;28;19925;-83
2022/12/24 11:31:51;;;;;;;;;;;9.60;99.90;;;;;;5055113;28;19924;-83
2022/12/24 11:34:17;;;;;;;;;;;9.60;99.90;;;;;;5070621;28;19979;-82
2022/12/24 11:36:43;;;;;;;;;;;9.60;99.90;;;;;;5069670;28;19925;-83
2022/12/24 11:39:16;;;;;;;;;;;9.70;99.90;;;;;;5071944;28;19935;-82
2022/12/24 11:41:41;;;;;;;;;;;9.70;99.90;;;;;;5067685;28;20577;-83
2022/12/24 11:44:07;;;;;;;;;;;9.70;99.90;;;;;;5047020;28;19924;-83
2022/12/24 11:46:33;;;;;;;;;;;9.70;99.90;;;;;;5066925;28;19994;-83
2022/12/24 11:49:21;;;;;;;;;;;9.70;99.90;;;;;;5072936;28;19955;-83
2022/12/24 11:52:05;;;;;;;;;;;9.70;99.90;;;;;;5055267;28;20378;-83
2022/12/24 11:54:35;;;;;;;;;;;9.70;99.90;;;;;;5070572;28;19932;-83
2022/12/24 11:57:02;;;;;;;;;;;9.80;99.90;;;;;;5054561;28;20446;-83
2022/12/24 11:59:36;;;;;;;;;;;9.70;99.90;;;;;;5053506;28;19931;-83
2022/12/24 12:02:11;;;;;;;;;;;9.80;99.90;;;;;;5068797;28;19940;-83
2022/12/24 12:04:38;;;;;;;;;;;9.80;99.90;;;;;;5049792;28;19932;-83
2022/12/24 12:07:09;;;;;;;;;;;9.70;99.90;;;;;;5070725;28;19928;-83
2022/12/24 12:09:58;;;;;;;;;;;9.80;99.90;;;;;;5068989;28;19924;-83
2022/12/24 12:12:26;;;;;;;;;;;9.80;99.90;;;;;;5033981;28;19943;-83
2022/12/24 12:14:54;;;;;;;;;;;9.90;99.90;;;;;;5047427;28;19924;-83
2022/12/24 12:17:23;;;;;;;;;;;9.90;99.90;;;;;;5053896;28;19951;-83
2022/12/24 12:19:53;;;;;;;;;;;9.90;99.90;;;;;;5053453;28;19932;-83
2022/12/24 12:22:25;;;;;;;;;;;9.90;99.90;;;;;;5043762;28;19925;-83
2022/12/24 12:24:53;;;;;;;;;;;10.00;99.90;;;;;;5050871;28;19928;-83
2022/12/24 12:27:34;;;;;;;;;;;10.00;99.90;;;;;;5055271;28;19924;-83
2022/12/24 12:30:13;;;;;;;;;;;9.90;99.90;;;;;;5053202;28;19925;-83
2022/12/24 12:32:43;;;;;;;;;;;10.00;99.90;;;;;;5066363;28;19932;-83
2022/12/24 12:35:15;;;;;;;;;;;10.00;99.90;;;;;;5052751;28;19931;-83
2022/12/24 12:37:43;;;;;;;;;;;10.10;99.90;;;;;;5072024;28;19929;-85
2022/12/24 12:40:16;;;;;;;;;;;10.10;99.90;;;;;;5068712;28;19947;-84
2022/12/24 12:42:56;;;;;;;;;;;10.10;99.90;;;;;;5054598;28;19928;-84
2022/12/24 12:45:35;;;;;;;;;;;10.10;99.90;;;;;;5067310;28;19925;-83
2022/12/24 12:48:04;;;;;;;;;;;10.10;99.90;;;;;;5071066;28;19924;-84
2022/12/24 12:50:43;;;;;;;;;;;10.10;99.90;;;;;;5052361;28;20630;-83
2022/12/24 12:53:12;;;;;;;;;;;10.00;99.90;;;;;;5069845;28;19924;-83
2022/12/24 12:55:40;;;;;;;;;;;10.00;99.90;;;;;;5049290;28;19968;-83
2022/12/24 12:58:14;;;;;;;;;;;9.90;99.90;;;;;;5068074;28;19932;-83
2022/12/24 13:00:41;;;;;;;;;;;9.90;99.90;;;;;;5051044;28;19935;-84
2022/12/24 13:03:21;;;;;;;;;;;9.90;99.90;;;;;;5066483;28;19936;-84
2022/12/24 13:05:47;;;;;;;;;;;9.90;99.90;;;;;;5068791;28;19928;-83
2022/12/24 13:08:12;;;;;;;;;;;9.90;99.90;;;;;;5055807;28;20324;-83
2022/12/24 13:10:51;;;;;;;;;;;9.90;99.90;;;;;;5050195;28;20007;-83
2022/12/24 13:13:16;;;;;;;;;;;10.00;99.90;;;;;;5052843;28;19932;-83
2022/12/24 13:16:11;;;;;;;;;;;10.00;99.90;;;;;;5050333;28;20018;-83
2022/12/24 13:18:46;;;;;;;;;;;10.00;99.90;;;;;;5018938;28;19933;-83
2022/12/24 13:21:22;;;;;;;;;;;10.10;99.90;;;;;;5076034;28;19977;-83
2022/12/24 13:23:48;;;;;;;;;;;10.10;99.90;;;;;;5078179;28;20007;-83
2022/12/24 13:26:14;;;;;;;;;;;10.10;99.90;;;;;;5047144;28;19960;-83
2022/12/24 13:28:40;;;;;;;;;;;10.10;99.90;;;;;;5075527;28;19974;-83
2022/12/24 13:31:18;;;;;;;;;;;10.00;99.90;;;;;;5065120;28;19925;-83
2022/12/24 13:33:44;;;;;;;;;;;9.90;99.90;;;;;;5055972;28;19929;-83
2022/12/24 13:36:10;;;;;;;;;;;9.90;99.90;;;;;;5073109;28;19975;-83
2022/12/24 13:38:41;;;;;;;;;;;9.90;99.90;;;;;;5076370;28;19932;-83
2022/12/24 13:41:25;;;;;;;;;;;9.80;99.90;;;;;;5071719;28;20318;-83
2022/12/24 13:44:12;;;;;;;;;;;9.80;99.90;;;;;;5057926;28;19946;-83
2022/12/24 13:47:02;;;;;;;;;;;9.80;99.90;;;;;;5074584;28;19940;-83
2022/12/24 13:49:29;;;;;;;;;;;9.80;99.90;;;;;;5050110;28;19979;-83
2022/12/24 13:52:06;;;;;;;;;;;9.80;99.90;;;;;;5062752;28;19928;-84
2022/12/24 13:54:31;;;;;;;;;;;9.80;99.90;;;;;;5074222;28;19925;-84
2022/12/24 13:56:58;;;;;;;;;;;9.80;99.90;;;;;;5054974;28;20354;-84
2022/12/24 13:59:38;;;;;;;;;;;9.70;99.90;;;;;;5059806;28;19924;-83
2022/12/24 14:02:04;;;;;;;;;;;9.70;99.90;;;;;;5072382;28;19975;-83
2022/12/24 14:04:31;;;;;;;;;;;9.70;99.90;;;;;;5071471;28;19925;-84
2022/12/24 14:06:58;;;;;;;;;;;9.70;99.90;;;;;;5066243;28;19924;-83
2022/12/24 14:09:24;;;;;;;;;;;9.60;99.90;;;;;;5076212;28;19935;-83
2022/12/24 14:12:02;;;;;;;;;;;9.60;99.90;;;;;;5059895;28;19924;-82
2022/12/24 14:14:32;;;;;;;;;;;9.60;99.90;;;;;;5075467;28;20009;-83
2022/12/24 14:17:02;;;;;;;;;;;9.50;99.90;;;;;;5058308;28;19924;-83
2022/12/24 14:19:30;;;;;;;;;;;9.50;99.90;;;;;;5057332;28;20363;-82
2022/12/24 14:22:15;;;;;;;;;;;9.50;99.90;;;;;;5080456;28;19928;-83
2022/12/24 14:24:41;;;;;;;;;;;9.40;99.90;;;;;;5062635;28;19928;-83
2022/12/24 14:27:16;;;;;;;;;;;9.40;99.90;;;;;;5075461;28;20015;-83
2022/12/24 14:30:02;;;;;;;;;;;9.40;99.90;;;;;;5057816;28;20055;-83
2022/12/24 14:32:38;;;;;;;;;;;9.40;99.90;;;;;;5061263;28;20003;-83
2022/12/24 14:35:05;;;;;;;;;;;9.30;99.90;;;;;;5067351;28;19956;-83
2022/12/24 14:37:30;;;;;;;;;;;9.30;99.90;;;;;;5059764;28;19924;-79
2022/12/24 14:39:56;;;;;;;;;;;9.30;99.90;;;;;;5072284;28;19943;-77
2022/12/24 14:42:40;;;;;;;;;;;9.30;99.90;;;;;;5077644;28;19959;-79
2022/12/24 14:45:12;;;;;;;;;;;9.30;99.90;;;;;;5077557;28;20440;-79
2022/12/24 14:47:45;;;;;;;;;;;9.30;99.90;;;;;;5070642;28;20027;-79